Main page
Satellite images 15-day forecastsClimateMarine weather Cyclones Lightning AirportsFAQ Newsletter About
Weather : Europe Africa North America South America Asia Australia-Oceania Others
Languages Contact

London-Heathrow, England

latitude: 51-29N, longitude: 000-27W, elevation: 24 m


METAR: EGLL 231250Z 27011KT 9999 FEW048 18/05 Q1015 NOSIG
short-TAF: out of date (50823 hours)
long-TAF: EGLL 231058Z 2312/2418 28005KT 9999 SCT045 PROB30 TEMPO 2313/2318 8000 SHRA PROB30 2403/2407 6000 BECMG 2415/2418 20010KT

Time: 14:21 (13:21 UTC)

Current weather observation

The report was made 31 minutes ago, at 12:50 UTC  
Wind 11 kt from the West
Temperature 18°C
Humidity 42%
Pressure 1015 hPa
Visibility 10 km or more
Few clouds at a height of 4800 ft

Change units

Forecast

The report was made 2 hours and 6 minutes ago, at 11:15 UTC  
Forecast valid from 23 at 12 UTC to 24 at 18 UTC
Wind 05 kt from the West
Visibility 10 km or more
Scattered clouds at a height of 4500 ft
Probability 30% :
Temporary
from 23 at 13 UTC to 23 at 18 UTC
Visibility 8000 m
rain showers
Probability 30%
from 24 at 03 UTC to 24 at 07 UTC
Visibility 6000 m
Becoming
from 24 at 15 UTC to 24 at 18 UTC
Wind 10 kt from the South/Southwest
The information on this site is subject to a disclaimer
Weather : Europe Africa North America South America Asia Australia-Oceania Others
Satellite images 15-day forecastsClimateMarine weather Cyclones Lightning AirportsFAQ Languages Contact Newsletter About